Arago, Minnesota
Current Conditions -  °F | °C
As of 10:53 AM on Friday 24 Oct 2014 (Local Time) from KPKD Reporting Station
Clear Clear  
Wind Chill: 58°   Ceiling: Unl
Heat Index: 58°   Visibility: 10mi
Dew Point: 46°   Wind: 6mph
Humidity: 65%   Direction: 240°WSW
Pressure: 29.82"   Gusts: NA
Location:  46.9966°N, 95.0029°W
Report Text: KPKD 241553Z AUTO 24005KT 10SM CLR 14/08 A2982 RMK AO2 SLP102 T01440078 TSNO
Loading
Personal Weather Stations






























Interactive Weather Map
Tropical Storm Tracking
New forecast layout! Learn more

10-Day Weather Forecast

Advertisements
Track Severe Weather on mobile